sensor_id;sensor_type;location;lat;lon;timestamp;pressure;altitude;pressure_sealevel;temperature;humidity
70684;BME280;58263;48.146;11.440;2023-04-21T00:00:11;95317.94;;;6.95;80.60
70684;BME280;58263;48.146;11.440;2023-04-21T00:02:36;95319.38;;;6.98;80.32
70684;BME280;58263;48.146;11.440;2023-04-21T00:05:06;95314.88;;;6.98;79.55
70684;BME280;58263;48.146;11.440;2023-04-21T00:07:36;95312.19;;;6.98;80.31
70684;BME280;58263;48.146;11.440;2023-04-21T00:10:04;95305.81;;;6.99;80.03
70684;BME280;58263;48.146;11.440;2023-04-21T00:12:30;95303.59;;;6.96;80.23
70684;BME280;58263;48.146;11.440;2023-04-21T00:14:55;95304.84;;;6.93;80.22
70684;BME280;58263;48.146;11.440;2023-04-21T00:17:20;95311.00;;;6.94;80.26
70684;BME280;58263;48.146;11.440;2023-04-21T00:19:46;95303.81;;;6.94;80.53
70684;BME280;58263;48.146;11.440;2023-04-21T00:22:11;95305.69;;;6.94;80.66
70684;BME280;58263;48.146;11.440;2023-04-21T00:24:39;95307.78;;;6.85;80.54
70684;BME280;58263;48.146;11.440;2023-04-21T00:27:05;95308.75;;;6.91;80.54
70684;BME280;58263;48.146;11.440;2023-04-21T00:29:30;95308.94;;;6.96;80.50
70684;BME280;58263;48.146;11.440;2023-04-21T00:31:56;95303.59;;;6.96;80.61
70684;BME280;58263;48.146;11.440;2023-04-21T00:34:21;95301.72;;;6.97;80.90
70684;BME280;58263;48.146;11.440;2023-04-21T00:36:46;95299.91;;;6.97;80.57
70684;BME280;58263;48.146;11.440;2023-04-21T00:39:12;95293.94;;;6.95;80.64
70684;BME280;58263;48.146;11.440;2023-04-21T00:41:38;95295.00;;;6.94;80.66
70684;BME280;58263;48.146;11.440;2023-04-21T00:44:08;95292.13;;;6.96;80.73
70684;BME280;58263;48.146;11.440;2023-04-21T00:46:35;95293.16;;;6.94;80.34
70684;BME280;58263;48.146;11.440;2023-04-21T00:49:03;95289.00;;;6.99;80.50
70684;BME280;58263;48.146;11.440;2023-04-21T00:51:29;95292.94;;;6.96;80.48
70684;BME280;58263;48.146;11.440;2023-04-21T00:53:57;95280.34;;;7.03;80.70
70684;BME280;58263;48.146;11.440;2023-04-21T00:56:24;95285.53;;;6.98;80.51
70684;BME280;58263;48.146;11.440;2023-04-21T00:58:51;95277.97;;;6.95;80.67
70684;BME280;58263;48.146;11.440;2023-04-21T01:01:17;95264.22;;;6.98;80.59
70684;BME280;58263;48.146;11.440;2023-04-21T01:03:43;95265.06;;;6.92;80.68
70684;BME280;58263;48.146;11.440;2023-04-21T01:06:09;95264.22;;;6.98;80.60
70684;BME280;58263;48.146;11.440;2023-04-21T01:08:34;95262.19;;;6.93;80.57
70684;BME280;58263;48.146;11.440;2023-04-21T01:11:00;95273.06;;;6.92;80.49
70684;BME280;58263;48.146;11.440;2023-04-21T01:13:32;95280.63;;;6.95;80.42
70684;BME280;58263;48.146;11.440;2023-04-21T01:15:58;95280.63;;;6.95;80.76
70684;BME280;58263;48.146;11.440;2023-04-21T01:18:23;95270.94;;;7.01;80.60
70684;BME280;58263;48.146;11.440;2023-04-21T01:20:49;95271.75;;;7.01;80.89
70684;BME280;58263;48.146;11.440;2023-04-21T01:23:14;95272.94;;;7.05;80.79
70684;BME280;58263;48.146;11.440;2023-04-21T01:25:41;95272.72;;;7.07;80.85
70684;BME280;58263;48.146;11.440;2023-04-21T01:28:06;95265.81;;;6.99;80.51
70684;BME280;58263;48.146;11.440;2023-04-21T01:30:32;95267.84;;;7.04;80.52
70684;BME280;58263;48.146;11.440;2023-04-21T01:32:57;95273.53;;;7.07;80.66
70684;BME280;58263;48.146;11.440;2023-04-21T01:35:24;95269.09;;;7.01;80.88
70684;BME280;58263;48.146;11.440;2023-04-21T01:37:49;95269.47;;;7.05;80.08
70684;BME280;58263;48.146;11.440;2023-04-21T01:40:15;95276.06;;;7.02;80.33
70684;BME280;58263;48.146;11.440;2023-04-21T01:42:41;95265.91;;;7.11;80.70
70684;BME280;58263;48.146;11.440;2023-04-21T01:45:07;95271.09;;;7.06;80.50
70684;BME280;58263;48.146;11.440;2023-04-21T01:47:33;95283.78;;;7.10;80.35
70684;BME280;58263;48.146;11.440;2023-04-21T01:49:58;95277.69;;;7.03;80.28
70684;BME280;58263;48.146;11.440;2023-04-21T01:52:23;95275.44;;;7.00;80.24
70684;BME280;58263;48.146;11.440;2023-04-21T01:54:49;95276.06;;;7.02;80.37
70684;BME280;58263;48.146;11.440;2023-04-21T01:57:15;95271.91;;;7.06;80.82
70684;BME280;58263;48.146;11.440;2023-04-21T01:59:42;95269.47;;;7.05;80.07
70684;BME280;58263;48.146;11.440;2023-04-21T02:02:07;95273.19;;;7.04;79.76
70684;BME280;58263;48.146;11.440;2023-04-21T02:04:32;95265.81;;;6.99;80.37
70684;BME280;58263;48.146;11.440;2023-04-21T02:06:58;95269.38;;;7.11;79.73
70684;BME280;58263;48.146;11.440;2023-04-21T02:09:23;95270.13;;;7.00;80.23
70684;BME280;58263;48.146;11.440;2023-04-21T02:11:48;95269.31;;;7.00;79.86
70684;BME280;58263;48.146;11.440;2023-04-21T02:14:14;95273.97;;;7.04;79.25
70684;BME280;58263;48.146;11.440;2023-04-21T02:16:39;95273.91;;;7.11;80.58
70684;BME280;58263;48.146;11.440;2023-04-21T02:19:04;95272.06;;;7.11;80.41
70684;BME280;58263;48.146;11.440;2023-04-21T02:21:30;95265.69;;;7.13;79.93
70684;BME280;58263;48.146;11.440;2023-04-21T02:23:56;95266.31;;;7.15;80.50
70684;BME280;58263;48.146;11.440;2023-04-21T02:26:22;95262.38;;;7.17;80.05
70684;BME280;58263;48.146;11.440;2023-04-21T02:28:47;95260.97;;;7.15;79.90
70684;BME280;58263;48.146;11.440;2023-04-21T02:31:13;95259.72;;;7.17;80.07
70684;BME280;58263;48.146;11.440;2023-04-21T02:33:39;95258.44;;;7.20;79.74
70684;BME280;58263;48.146;11.440;2023-04-21T02:36:04;95259.50;;;7.19;79.93
70684;BME280;58263;48.146;11.440;2023-04-21T02:38:30;95252.75;;;7.16;79.50
70684;BME280;58263;48.146;11.440;2023-04-21T02:40:56;95248.66;;;7.14;80.87
70684;BME280;58263;48.146;11.440;2023-04-21T02:43:21;95249.69;;;7.13;80.37
70684;BME280;58263;48.146;11.440;2023-04-21T02:45:46;95252.59;;;7.11;80.99
70684;BME280;58263;48.146;11.440;2023-04-21T02:48:12;95253.53;;;7.17;80.46
70684;BME280;58263;48.146;11.440;2023-04-21T02:50:37;95253.78;;;7.15;79.96
70684;BME280;58263;48.146;11.440;2023-04-21T02:53:04;95236.50;;;7.18;80.31
70684;BME280;58263;48.146;11.440;2023-04-21T02:55:29;95239.75;;;7.20;79.70
70684;BME280;58263;48.146;11.440;2023-04-21T02:57:55;95245.94;;;7.20;80.48
70684;BME280;58263;48.146;11.440;2023-04-21T03:00:20;95236.97;;;7.15;80.82
70684;BME280;58263;48.146;11.440;2023-04-21T03:02:45;95231.19;;;7.18;80.46
70684;BME280;58263;48.146;11.440;2023-04-21T03:05:11;95231.94;;;7.06;81.45
70684;BME280;58263;48.146;11.440;2023-04-21T03:07:37;95233.34;;;7.09;81.38
70684;BME280;58263;48.146;11.440;2023-04-21T03:10:03;95228.06;;;7.02;81.64
70684;BME280;58263;48.146;11.440;2023-04-21T03:12:28;95242.81;;;7.05;81.53
70684;BME280;58263;48.146;11.440;2023-04-21T03:14:53;95250.09;;;6.91;82.50
70684;BME280;58263;48.146;11.440;2023-04-21T03:17:18;95251.53;;;6.93;82.84
70684;BME280;58263;48.146;11.440;2023-04-21T03:19:44;95242.94;;;6.91;83.60
70684;BME280;58263;48.146;11.440;2023-04-21T03:22:09;95253.97;;;6.95;83.15
70684;BME280;58263;48.146;11.440;2023-04-21T03:24:35;95257.53;;;6.89;83.34
70684;BME280;58263;48.146;11.440;2023-04-21T03:27:00;95248.09;;;6.86;83.48
70684;BME280;58263;48.146;11.440;2023-04-21T03:29:26;95263.88;;;6.88;83.55
70684;BME280;58263;48.146;11.440;2023-04-21T03:31:51;95254.47;;;6.85;83.87
70684;BME280;58263;48.146;11.440;2023-04-21T03:34:17;95260.53;;;6.92;83.86
70684;BME280;58263;48.146;11.440;2023-04-21T03:36:42;95253.22;;;6.88;83.75
70684;BME280;58263;48.146;11.440;2023-04-21T03:39:07;95246.25;;;6.87;83.83
70684;BME280;58263;48.146;11.440;2023-04-21T03:41:33;95247.50;;;6.84;83.57
70684;BME280;58263;48.146;11.440;2023-04-21T03:43:58;95247.50;;;6.84;83.70
70684;BME280;58263;48.146;11.440;2023-04-21T03:46:24;95251.56;;;6.87;83.98
70684;BME280;58263;48.146;11.440;2023-04-21T03:48:49;95239.59;;;6.96;82.94
70684;BME280;58263;48.146;11.440;2023-04-21T03:51:15;95238.56;;;6.97;82.96
70684;BME280;58263;48.146;11.440;2023-04-21T03:53:40;95233.00;;;6.99;82.38
70684;BME280;58263;48.146;11.440;2023-04-21T03:56:06;95233.06;;;6.92;82.97
70684;BME280;58263;48.146;11.440;2023-04-21T03:58:31;95227.75;;;6.92;82.33
70684;BME280;58263;48.146;11.440;2023-04-21T04:00:56;95224.50;;;6.90;82.29
70684;BME280;58263;48.146;11.440;2023-04-21T04:03:22;95233.81;;;6.81;82.86
70684;BME280;58263;48.146;11.440;2023-04-21T04:05:47;95236.47;;;6.81;82.87
70684;BME280;58263;48.146;11.440;2023-04-21T04:08:12;95246.03;;;6.88;82.61
70684;BME280;58263;48.146;11.440;2023-04-21T04:10:37;95245.94;;;6.76;82.87
70684;BME280;58263;48.146;11.440;2023-04-21T04:13:03;95256.88;;;6.68;83.12
70684;BME280;58263;48.146;11.440;2023-04-21T04:15:28;95264.09;;;6.61;83.40
70684;BME280;58263;48.146;11.440;2023-04-21T04:17:54;95254.09;;;6.56;83.61
70684;BME280;58263;48.146;11.440;2023-04-21T04:20:19;95258.34;;;6.64;83.29
70684;BME280;58263;48.146;11.440;2023-04-21T04:22:45;95259.97;;;6.65;83.17
70684;BME280;58263;48.146;11.440;2023-04-21T04:25:10;95266.19;;;6.59;83.20
70684;BME280;58263;48.146;11.440;2023-04-21T04:27:37;95265.56;;;6.57;83.61
70684;BME280;58263;48.146;11.440;2023-04-21T04:30:02;95268.22;;;6.57;83.31
70684;BME280;58263;48.146;11.440;2023-04-21T04:32:28;95267.06;;;6.46;83.96
70684;BME280;58263;48.146;11.440;2023-04-21T04:34:54;95266.06;;;6.47;83.77
70684;BME280;58263;48.146;11.440;2023-04-21T04:37:23;95256.31;;;6.59;83.39
70684;BME280;58263;48.146;11.440;2023-04-21T04:39:53;95261.66;;;6.59;83.12
70684;BME280;58263;48.146;11.440;2023-04-21T04:42:18;95259.38;;;6.63;82.73
70684;BME280;58263;48.146;11.440;2023-04-21T04:44:45;95257.69;;;6.43;83.55
70684;BME280;58263;48.146;11.440;2023-04-21T04:47:11;95258.91;;;6.48;83.76
70684;BME280;58263;48.146;11.440;2023-04-21T04:49:36;95262.94;;;6.50;83.31
70684;BME280;58263;48.146;11.440;2023-04-21T04:52:02;95258.09;;;6.40;83.65
70684;BME280;58263;48.146;11.440;2023-04-21T04:54:27;95274.25;;;6.46;84.26
70684;BME280;58263;48.146;11.440;2023-04-21T04:56:53;95269.56;;;6.48;83.68
70684;BME280;58263;48.146;11.440;2023-04-21T04:59:19;95274.38;;;6.57;83.61
70684;BME280;58263;48.146;11.440;2023-04-21T05:01:44;95274.75;;;6.61;83.69
70684;BME280;58263;48.146;11.440;2023-04-21T05:04:10;95276.78;;;6.66;83.69
70684;BME280;58263;48.146;11.440;2023-04-21T05:06:35;95282.13;;;6.66;83.69
70684;BME280;58263;48.146;11.440;2023-04-21T05:09:01;95279.97;;;6.74;83.54
70684;BME280;58263;48.146;11.440;2023-04-21T05:11:26;95285.31;;;6.74;83.57
70684;BME280;58263;48.146;11.440;2023-04-21T05:13:51;95284.81;;;6.84;83.13
70684;BME280;58263;48.146;11.440;2023-04-21T05:16:17;95283.56;;;6.87;83.30
70684;BME280;58263;48.146;11.440;2023-04-21T05:18:42;95281.50;;;6.89;83.41
70684;BME280;58263;48.146;11.440;2023-04-21T05:21:07;95287.00;;;6.94;83.39
70684;BME280;58263;48.146;11.440;2023-04-21T05:23:33;95290.88;;;6.98;83.04
70684;BME280;58263;48.146;11.440;2023-04-21T05:25:58;95289.06;;;6.92;83.50
70684;BME280;58263;48.146;11.440;2023-04-21T05:28:23;95288.25;;;6.91;83.71
70684;BME280;58263;48.146;11.440;2023-04-21T05:30:49;95281.47;;;6.96;83.74
70684;BME280;58263;48.146;11.440;2023-04-21T05:33:17;95284.19;;;7.07;83.40
70684;BME280;58263;48.146;11.440;2023-04-21T05:35:43;95289.06;;;7.17;82.97
70684;BME280;58263;48.146;11.440;2023-04-21T05:38:08;95283.22;;;7.27;82.68
70684;BME280;58263;48.146;11.440;2023-04-21T05:40:34;95280.81;;;7.37;82.23
70684;BME280;58263;48.146;11.440;2023-04-21T05:42:59;95280.69;;;7.32;81.50
70684;BME280;58263;48.146;11.440;2023-04-21T05:45:24;95281.94;;;7.48;80.78
70684;BME280;58263;48.146;11.440;2023-04-21T05:47:49;95282.72;;;7.55;80.59
70684;BME280;58263;48.146;11.440;2023-04-21T05:50:15;95289.72;;;7.50;80.04
70684;BME280;58263;48.146;11.440;2023-04-21T05:52:41;95290.84;;;7.42;80.52
70684;BME280;58263;48.146;11.440;2023-04-21T05:55:06;95290.47;;;7.57;79.59
70684;BME280;58263;48.146;11.440;2023-04-21T05:57:31;95287.53;;;7.65;79.59
70684;BME280;58263;48.146;11.440;2023-04-21T05:59:57;95290.09;;;7.72;79.42
70684;BME280;58263;48.146;11.440;2023-04-21T06:02:22;95290.31;;;7.89;78.68
70684;BME280;58263;48.146;11.440;2023-04-21T06:04:47;95290.41;;;8.12;78.43
70684;BME280;58263;48.146;11.440;2023-04-21T06:07:13;95290.69;;;8.23;77.46
70684;BME280;58263;48.146;11.440;2023-04-21T06:09:39;95284.75;;;8.51;76.77
70684;BME280;58263;48.146;11.440;2023-04-21T06:12:05;95270.41;;;8.76;76.15
70684;BME280;58263;48.146;11.440;2023-04-21T06:14:31;95279.94;;;8.84;75.33
70684;BME280;58263;48.146;11.440;2023-04-21T06:16:56;95281.81;;;9.07;75.13
70684;BME280;58263;48.146;11.440;2023-04-21T06:19:22;95275.53;;;9.25;74.26
70684;BME280;58263;48.146;11.440;2023-04-21T06:21:47;95277.13;;;9.50;73.15
70684;BME280;58263;48.146;11.440;2023-04-21T06:24:13;95266.19;;;9.63;72.58
70684;BME280;58263;48.146;11.440;2023-04-21T06:26:38;95271.84;;;9.67;71.25
70684;BME280;58263;48.146;11.440;2023-04-21T06:29:03;95272.38;;;9.92;71.26
70684;BME280;58263;48.146;11.440;2023-04-21T06:31:28;95262.22;;;10.06;70.71
70684;BME280;58263;48.146;11.440;2023-04-21T06:33:55;95263.97;;;10.29;69.85
70684;BME280;58263;48.146;11.440;2023-04-21T06:36:20;95262.56;;;10.56;68.77
70684;BME280;58263;48.146;11.440;2023-04-21T06:38:47;95258.69;;;10.80;68.78
70684;BME280;58263;48.146;11.440;2023-04-21T06:41:12;95263.41;;;10.73;67.06
70684;BME280;58263;48.146;11.440;2023-04-21T06:43:37;95258.66;;;10.97;67.00
70684;BME280;58263;48.146;11.440;2023-04-21T06:46:03;95253.75;;;11.28;66.92
70684;BME280;58263;48.146;11.440;2023-04-21T06:48:28;95255.16;;;11.53;64.72
70684;BME280;58263;48.146;11.440;2023-04-21T06:50:54;95245.50;;;11.74;64.53
70684;BME280;58263;48.146;11.440;2023-04-21T06:53:20;95244.13;;;11.94;63.77
70684;BME280;58263;48.146;11.440;2023-04-21T06:55:46;95251.22;;;12.00;62.97
70684;BME280;58263;48.146;11.440;2023-04-21T06:58:12;95260.13;;;12.28;63.39
70684;BME280;58263;48.146;11.440;2023-04-21T07:00:37;95257.56;;;12.43;63.52
70684;BME280;58263;48.146;11.440;2023-04-21T07:03:03;95257.94;;;12.25;61.97
70684;BME280;58263;48.146;11.440;2023-04-21T07:05:28;95257.34;;;12.17;61.96
70684;BME280;58263;48.146;11.440;2023-04-21T07:07:54;95251.50;;;12.26;61.93
70684;BME280;58263;48.146;11.440;2023-04-21T07:10:26;95256.88;;;12.26;62.22
70684;BME280;58263;48.146;11.440;2023-04-21T07:12:52;95256.34;;;12.02;62.25
70684;BME280;58263;48.146;11.440;2023-04-21T07:15:18;95247.75;;;11.82;61.93
70684;BME280;58263;48.146;11.440;2023-04-21T07:17:44;95241.94;;;11.91;61.79
70684;BME280;58263;48.146;11.440;2023-04-21T07:20:09;95247.63;;;12.16;62.15
70684;BME280;58263;48.146;11.440;2023-04-21T07:22:34;95253.09;;;12.27;60.84
70684;BME280;58263;48.146;11.440;2023-04-21T07:25:04;95251.69;;;12.19;60.50
70684;BME280;58263;48.146;11.440;2023-04-21T07:27:31;95252.50;;;12.20;60.86
70684;BME280;58263;48.146;11.440;2023-04-21T07:29:56;95252.38;;;12.31;60.91
70684;BME280;58263;48.146;11.440;2023-04-21T07:32:22;95254.22;;;12.31;60.84
70684;BME280;58263;48.146;11.440;2023-04-21T07:34:47;95258.78;;;12.30;59.89
70684;BME280;58263;48.146;11.440;2023-04-21T07:37:13;95254.41;;;12.24;59.91
70684;BME280;58263;48.146;11.440;2023-04-21T07:39:40;95249.50;;;11.94;61.14
70684;BME280;58263;48.146;11.440;2023-04-21T07:42:05;95258.00;;;12.30;60.81
70684;BME280;58263;48.146;11.440;2023-04-21T07:44:32;95266.06;;;12.08;60.34
70684;BME280;58263;48.146;11.440;2023-04-21T07:46:58;95258.00;;;12.08;61.61
70684;BME280;58263;48.146;11.440;2023-04-21T07:49:23;95268.44;;;12.26;61.19
70684;BME280;58263;48.146;11.440;2023-04-21T07:51:49;95266.28;;;12.28;60.47
70684;BME280;58263;48.146;11.440;2023-04-21T07:54:14;95261.94;;;12.22;59.62
70684;BME280;58263;48.146;11.440;2023-04-21T07:56:39;95258.09;;;12.40;60.05
70684;BME280;58263;48.146;11.440;2023-04-21T07:59:04;95260.50;;;12.14;59.60
70684;BME280;58263;48.146;11.440;2023-04-21T08:01:30;95261.75;;;12.56;59.72
70684;BME280;58263;48.146;11.440;2023-04-21T08:03:55;95272.75;;;12.55;59.37
70684;BME280;58263;48.146;11.440;2023-04-21T08:06:20;95265.84;;;12.64;58.63
70684;BME280;58263;48.146;11.440;2023-04-21T08:08:46;95265.97;;;12.79;59.21
70684;BME280;58263;48.146;11.440;2023-04-21T08:11:11;95254.69;;;13.15;58.17
70684;BME280;58263;48.146;11.440;2023-04-21T08:13:36;95254.69;;;13.58;57.71
70684;BME280;58263;48.146;11.440;2023-04-21T08:16:02;95248.56;;;13.73;57.93
70684;BME280;58263;48.146;11.440;2023-04-21T08:18:27;95261.91;;;14.05;57.12
70684;BME280;58263;48.146;11.440;2023-04-21T08:20:52;95257.09;;;14.17;55.76
70684;BME280;58263;48.146;11.440;2023-04-21T08:23:19;95256.03;;;14.24;55.66
70684;BME280;58263;48.146;11.440;2023-04-21T08:25:45;95258.19;;;14.22;55.92
70684;BME280;58263;48.146;11.440;2023-04-21T08:28:10;95250.66;;;14.24;56.14
70684;BME280;58263;48.146;11.440;2023-04-21T08:30:35;95259.84;;;14.33;54.82
70684;BME280;58263;48.146;11.440;2023-04-21T08:33:01;95260.66;;;14.44;54.25
70684;BME280;58263;48.146;11.440;2023-04-21T08:35:26;95256.69;;;14.72;53.55
70684;BME280;58263;48.146;11.440;2023-04-21T08:37:51;95257.78;;;15.07;54.04
70684;BME280;58263;48.146;11.440;2023-04-21T08:40:17;95250.13;;;15.61;52.59
70684;BME280;58263;48.146;11.440;2023-04-21T08:42:43;95243.22;;;16.04;51.55
70684;BME280;58263;48.146;11.440;2023-04-21T08:45:09;95247.84;;;16.04;50.76
70684;BME280;58263;48.146;11.440;2023-04-21T08:47:37;95243.50;;;16.08;49.55
70684;BME280;58263;48.146;11.440;2023-04-21T08:50:06;95247.63;;;15.95;49.21
70684;BME280;58263;48.146;11.440;2023-04-21T08:52:31;95234.91;;;15.96;50.02
70684;BME280;58263;48.146;11.440;2023-04-21T08:54:57;95243.97;;;16.26;49.12
70684;BME280;58263;48.146;11.440;2023-04-21T08:57:23;95241.53;;;16.69;48.74
70684;BME280;58263;48.146;11.440;2023-04-21T08:59:48;95235.16;;;17.23;48.01
70684;BME280;58263;48.146;11.440;2023-04-21T09:02:14;95244.44;;;17.47;46.21
70684;BME280;58263;48.146;11.440;2023-04-21T09:04:44;95226.31;;;17.90;46.97
70684;BME280;58263;48.146;11.440;2023-04-21T09:07:10;95225.88;;;18.27;45.27
70684;BME280;58263;48.146;11.440;2023-04-21T09:10:04;95228.59;;;18.65;43.24
70684;BME280;58263;48.146;11.440;2023-04-21T09:12:29;95222.44;;;18.40;44.14
70684;BME280;58263;48.146;11.440;2023-04-21T09:14:55;95226.13;;;18.49;42.83
70684;BME280;58263;48.146;11.440;2023-04-21T09:17:28;95217.00;;;18.78;43.01
70684;BME280;58263;48.146;11.440;2023-04-21T09:20:19;95219.41;;;18.80;43.32
70684;BME280;58263;48.146;11.440;2023-04-21T09:22:47;95222.56;;;18.68;43.82
70684;BME280;58263;48.146;11.440;2023-04-21T09:25:18;95221.19;;;18.51;42.76
70684;BME280;58263;48.146;11.440;2023-04-21T09:27:45;95209.94;;;18.20;42.36
70684;BME280;58263;48.146;11.440;2023-04-21T09:30:11;95210.94;;;18.05;44.88
70684;BME280;58263;48.146;11.440;2023-04-21T09:32:39;95215.53;;;18.67;44.36
70684;BME280;58263;48.146;11.440;2023-04-21T09:35:09;95219.59;;;18.88;43.45
70684;BME280;58263;48.146;11.440;2023-04-21T09:37:35;95216.09;;;18.64;43.76
70684;BME280;58263;48.146;11.440;2023-04-21T09:40:00;95220.31;;;18.75;44.29
70684;BME280;58263;48.146;11.440;2023-04-21T09:42:28;95217.88;;;18.73;43.82
70684;BME280;58263;48.146;11.440;2023-04-21T09:44:54;95214.34;;;18.73;43.66
70684;BME280;58263;48.146;11.440;2023-04-21T09:47:20;95217.66;;;18.70;41.74
70684;BME280;58263;48.146;11.440;2023-04-21T09:49:50;95213.00;;;19.08;43.06
70684;BME280;58263;48.146;11.440;2023-04-21T09:52:18;95208.72;;;19.35;41.69
70684;BME280;58263;48.146;11.440;2023-04-21T09:54:56;95206.53;;;19.51;42.88
70684;BME280;58263;48.146;11.440;2023-04-21T09:57:25;95203.41;;;20.27;42.01
70684;BME280;58263;48.146;11.440;2023-04-21T10:00:05;95206.69;;;20.52;41.25
70684;BME280;58263;48.146;11.440;2023-04-21T10:02:34;95199.53;;;21.02;39.85
70684;BME280;58263;48.146;11.440;2023-04-21T10:05:03;95198.44;;;21.34;39.14
70684;BME280;58263;48.146;11.440;2023-04-21T10:07:30;95204.56;;;21.40;38.46
70684;BME280;58263;48.146;11.440;2023-04-21T10:09:57;95196.16;;;21.27;39.85
70684;BME280;58263;48.146;11.440;2023-04-21T10:12:24;95206.53;;;21.71;39.08
70684;BME280;58263;48.146;11.440;2023-04-21T10:14:51;95201.91;;;21.80;38.03
70684;BME280;58263;48.146;11.440;2023-04-21T10:17:17;95195.75;;;22.32;38.26
70684;BME280;58263;48.146;11.440;2023-04-21T10:19:54;95195.16;;;22.79;36.55
70684;BME280;58263;48.146;11.440;2023-04-21T10:22:32;95191.94;;;22.94;36.54
70684;BME280;58263;48.146;11.440;2023-04-21T10:24:59;95185.78;;;23.33;36.40
70684;BME280;58263;48.146;11.440;2023-04-21T10:27:36;95188.06;;;22.95;35.47
70684;BME280;58263;48.146;11.440;2023-04-21T10:30:23;95189.28;;;23.42;35.53
70684;BME280;58263;48.146;11.440;2023-04-21T10:33:06;95180.59;;;24.89;33.39
70684;BME280;58263;48.146;11.440;2023-04-21T10:36:04;95175.56;;;26.86;29.75
70684;BME280;58263;48.146;11.440;2023-04-21T10:38:34;95178.97;;;27.67;27.48
70684;BME280;58263;48.146;11.440;2023-04-21T10:41:29;95169.44;;;28.64;25.76
70684;BME280;58263;48.146;11.440;2023-04-21T10:44:11;95176.41;;;30.29;25.04
70684;BME280;58263;48.146;11.440;2023-04-21T10:46:38;95170.72;;;31.02;23.38
70684;BME280;58263;48.146;11.440;2023-04-21T10:49:08;95170.41;;;31.45;23.41
70684;BME280;58263;48.146;11.440;2023-04-21T10:57:21;95160.81;;;32.81;21.04
70684;BME280;58263;48.146;11.440;2023-04-21T10:59:47;95162.50;;;32.33;21.38
70684;BME280;58263;48.146;11.440;2023-04-21T11:02:15;95158.53;;;33.12;21.30
70684;BME280;58263;48.146;11.440;2023-04-21T11:04:41;95150.00;;;34.11;19.98
70684;BME280;58263;48.146;11.440;2023-04-21T11:07:15;95151.03;;;33.19;19.73
70684;BME280;58263;48.146;11.440;2023-04-21T11:09:42;95150.78;;;32.69;20.89
70684;BME280;58263;48.146;11.440;2023-04-21T11:12:09;95154.38;;;34.08;19.39
70684;BME280;58263;48.146;11.440;2023-04-21T11:14:36;95145.56;;;33.48;20.30
70684;BME280;58263;48.146;11.440;2023-04-21T11:17:02;95154.28;;;34.69;20.25
70684;BME280;58263;48.146;11.440;2023-04-21T11:19:30;95142.56;;;36.37;18.66
70684;BME280;58263;48.146;11.440;2023-04-21T11:21:56;95144.31;;;36.62;18.30
70684;BME280;58263;48.146;11.440;2023-04-21T11:24:22;95138.72;;;37.31;17.18
70684;BME280;58263;48.146;11.440;2023-04-21T11:26:48;95126.59;;;37.96;16.07
70684;BME280;58263;48.146;11.440;2023-04-21T11:29:14;95125.97;;;38.56;15.96
70684;BME280;58263;48.146;11.440;2023-04-21T11:31:41;95126.34;;;39.38;15.28
70684;BME280;58263;48.146;11.440;2023-04-21T11:34:08;95127.22;;;39.88;15.66
70684;BME280;58263;48.146;11.440;2023-04-21T11:36:41;95126.38;;;38.98;15.45
70684;BME280;58263;48.146;11.440;2023-04-21T11:39:07;95123.13;;;39.00;15.72
70684;BME280;58263;48.146;11.440;2023-04-21T11:41:34;95121.00;;;40.89;14.54
70684;BME280;58263;48.146;11.440;2023-04-21T11:44:00;95122.31;;;41.01;14.04
70684;BME280;58263;48.146;11.440;2023-04-21T11:46:27;95118.84;;;40.34;14.80
70684;BME280;58263;48.146;11.440;2023-04-21T11:49:13;95123.69;;;40.34;14.07
70684;BME280;58263;48.146;11.440;2023-04-21T11:51:45;95115.66;;;40.49;14.84
70684;BME280;58263;48.146;11.440;2023-04-21T11:54:12;95116.81;;;40.81;14.68
70684;BME280;58263;48.146;11.440;2023-04-21T11:56:40;95116.03;;;40.34;15.15
70684;BME280;58263;48.146;11.440;2023-04-21T12:01:32;95103.50;;;37.37;17.35
70684;BME280;58263;48.146;11.440;2023-04-21T12:03:58;95108.28;;;36.71;17.33
70684;BME280;58263;48.146;11.440;2023-04-21T12:06:25;95103.09;;;35.23;19.12
70684;BME280;58263;48.146;11.440;2023-04-21T12:08:55;95111.63;;;35.68;19.49
70684;BME280;58263;48.146;11.440;2023-04-21T12:11:22;95104.03;;;36.18;18.90
70684;BME280;58263;48.146;11.440;2023-04-21T12:13:48;95100.78;;;37.58;17.21
70684;BME280;58263;48.146;11.440;2023-04-21T12:16:14;95113.31;;;38.68;16.65
70684;BME280;58263;48.146;11.440;2023-04-21T12:18:39;95105.31;;;38.26;15.95
70684;BME280;58263;48.146;11.440;2023-04-21T12:21:04;95101.91;;;38.79;15.58
70684;BME280;58263;48.146;11.440;2023-04-21T12:23:30;95096.56;;;38.44;16.45
70684;BME280;58263;48.146;11.440;2023-04-21T12:25:56;95099.03;;;39.76;15.71
70684;BME280;58263;48.146;11.440;2023-04-21T12:28:21;95099.78;;;38.19;17.08
70684;BME280;58263;48.146;11.440;2023-04-21T12:30:47;95099.13;;;39.72;15.46
70684;BME280;58263;48.146;11.440;2023-04-21T12:33:12;95099.13;;;39.88;15.26
70684;BME280;58263;48.146;11.440;2023-04-21T12:35:37;95109.22;;;39.86;15.20
70684;BME280;58263;48.146;11.440;2023-04-21T12:38:03;95092.88;;;39.64;15.23
70684;BME280;58263;48.146;11.440;2023-04-21T12:40:28;95099.75;;;39.07;15.39
70684;BME280;58263;48.146;11.440;2023-04-21T12:42:54;95099.03;;;40.25;15.01
70684;BME280;58263;48.146;11.440;2023-04-21T12:45:19;95094.81;;;40.17;14.52
70684;BME280;58263;48.146;11.440;2023-04-21T12:47:44;95099.72;;;39.27;15.64
70684;BME280;58263;48.146;11.440;2023-04-21T12:50:10;95100.03;;;38.72;15.75
70684;BME280;58263;48.146;11.440;2023-04-21T12:52:35;95091.06;;;39.37;15.40
70684;BME280;58263;48.146;11.440;2023-04-21T12:55:01;95093.84;;;39.21;15.67
70684;BME280;58263;48.146;11.440;2023-04-21T12:57:26;95087.56;;;38.53;16.14
70684;BME280;58263;48.146;11.440;2023-04-21T12:59:52;95091.78;;;39.58;15.62